createdAt,value
2019-03-28T00:02:00.635Z,26.20
2019-03-28T00:04:42.269Z,27.32
2019-03-28T00:07:24.300Z,31.17
2019-03-28T00:10:04.781Z,31.77
2019-03-28T00:12:45.884Z,28.20
2019-03-28T00:15:26.266Z,27.53
2019-03-28T00:18:07.222Z,32.07
2019-03-28T00:20:48.145Z,26.73
2019-03-28T00:26:35.604Z,35.60
2019-03-28T00:29:16.216Z,37.43
2019-03-28T00:31:56.613Z,27.97
2019-03-28T00:34:37.193Z,45.97
2019-03-28T00:37:18.133Z,27.30
2019-03-28T00:39:58.661Z,26.80
2019-03-28T00:42:39.508Z,23.93
2019-03-28T00:45:08.541Z,40.55
2019-03-28T00:47:37.093Z,25.03
2019-03-28T00:50:08.434Z,32.03
2019-03-28T00:52:37.044Z,34.53
2019-03-28T00:55:24.982Z,38.77
2019-03-28T00:58:12.879Z,30.00
2019-03-28T01:01:00.808Z,36.38
2019-03-28T01:06:55.615Z,21.80
2019-03-28T01:09:43.513Z,29.03
2019-03-28T01:12:12.109Z,22.43
2019-03-28T01:15:00.032Z,30.17
2019-03-28T01:17:47.960Z,27.57
2019-03-28T01:20:35.859Z,37.07
2019-03-28T01:23:23.809Z,29.37
2019-03-28T01:26:11.749Z,27.07
2019-03-28T01:28:59.643Z,32.47
2019-03-28T01:31:47.583Z,29.53
2019-03-28T01:34:35.476Z,35.60
2019-03-28T01:37:23.415Z,28.87
2019-03-28T01:40:04.113Z,47.20
2019-03-28T01:42:45.397Z,35.47
2019-03-28T01:45:25.969Z,39.00
2019-03-28T01:48:06.753Z,36.90
2019-03-28T01:50:47.458Z,28.13
2019-03-28T01:53:28.004Z,28.80
2019-03-28T01:56:08.880Z,33.43
2019-03-28T01:58:49.675Z,25.67
2019-03-28T02:01:30.170Z,36.30
2019-03-28T02:04:11.165Z,25.43
2019-03-28T02:06:39.756Z,27.85
2019-03-28T02:09:08.348Z,35.40
2019-03-28T02:11:36.904Z,34.90
2019-03-28T02:14:24.841Z,33.50
2019-03-28T02:17:12.736Z,37.27
2019-03-28T02:20:00.673Z,34.43
2019-03-28T02:22:48.576Z,37.93
2019-03-28T02:31:24.252Z,41.93
2019-03-28T02:34:12.148Z,45.53
2019-03-28T02:37:00.089Z,34.98
2019-03-28T02:39:40.917Z,46.85
2019-03-28T02:42:21.613Z,40.93
2019-03-28T02:45:03.569Z,25.53
2019-03-28T02:47:44.469Z,30.93
2019-03-28T02:50:25.233Z,30.03
2019-03-28T02:53:05.845Z,36.05
2019-03-28T02:55:46.178Z,32.93
2019-03-28T02:58:27.309Z,36.87
2019-03-28T03:01:07.627Z,39.53
2019-03-28T03:03:48.244Z,33.70
2019-03-28T03:06:28.829Z,45.00
2019-03-28T03:09:09.116Z,33.73
2019-03-28T03:11:49.984Z,58.42
2019-03-28T03:14:30.825Z,38.80
2019-03-28T03:17:12.105Z,35.80
2019-03-28T03:19:52.728Z,34.45
2019-03-28T03:22:33.845Z,52.53
2019-03-28T03:25:14.701Z,34.40
2019-03-28T03:27:58.386Z,40.27
2019-03-28T03:30:37.501Z,33.83
2019-03-28T03:33:18.675Z,57.63
2019-03-28T03:35:59.041Z,35.27
2019-03-28T03:38:39.363Z,40.47
2019-03-28T03:41:09.177Z,35.37
2019-03-28T03:43:57.112Z,42.27
2019-03-28T03:46:45.008Z,41.33
2019-03-28T03:49:32.947Z,31.73
2019-03-28T03:52:20.844Z,44.40
2019-03-28T03:55:08.780Z,43.93
2019-03-28T03:58:13.847Z,38.33
2019-03-28T04:00:46.261Z,41.20
2019-03-28T04:03:34.156Z,46.60
2019-03-28T04:06:22.087Z,41.43
2019-03-28T04:08:50.640Z,43.43
2019-03-28T04:11:38.565Z,43.23
2019-03-28T04:14:26.500Z,37.50
2019-03-28T04:16:55.668Z,36.90
2019-03-28T04:19:43.806Z,37.90
2019-03-28T04:22:31.722Z,42.83
2019-03-28T04:25:19.653Z,45.98
2019-03-28T04:28:07.624Z,45.35
2019-03-28T04:30:55.549Z,35.37
2019-03-28T04:33:43.445Z,54.40
2019-03-28T04:36:31.379Z,42.03
2019-03-28T04:42:26.172Z,45.92
2019-03-28T04:45:14.163Z,50.63
2019-03-28T04:47:42.836Z,53.30
2019-03-28T04:50:11.535Z,47.67
2019-03-28T04:52:40.134Z,45.13
2019-03-28T04:55:08.754Z,40.43
2019-03-28T04:57:37.460Z,49.00
2019-03-28T05:00:08.077Z,36.70
2019-03-28T05:02:55.964Z,46.67
2019-03-28T05:05:43.908Z,45.73
2019-03-28T05:11:40.351Z,44.43
2019-03-28T05:14:28.265Z,44.00
2019-03-28T05:17:16.199Z,43.53
2019-03-28T05:20:24.844Z,42.40
2019-03-28T05:23:12.788Z,45.88
2019-03-28T05:26:00.700Z,40.20
2019-03-28T05:28:57.548Z,49.65
2019-03-28T05:31:38.242Z,47.50
2019-03-28T05:34:26.174Z,57.30
2019-03-28T05:37:14.113Z,75.80
2019-03-28T05:40:02.008Z,50.95
2019-03-28T05:42:42.830Z,50.30
2019-03-28T05:45:23.508Z,60.93
2019-03-28T05:48:04.445Z,63.73
2019-03-28T05:50:45.476Z,51.50
2019-03-28T05:53:26.148Z,55.12
2019-03-28T05:56:07.259Z,47.20
2019-03-28T05:58:47.751Z,50.87
2019-03-28T06:01:16.316Z,47.93
2019-03-28T06:04:04.332Z,46.73
2019-03-28T06:06:52.331Z,49.03
2019-03-28T06:09:40.493Z,52.00
2019-03-28T06:12:30.440Z,44.27
2019-03-28T06:15:10.776Z,57.00
2019-03-28T06:17:51.632Z,48.53
2019-03-28T06:20:32.710Z,44.93
2019-03-28T06:23:13.701Z,49.60
2019-03-28T06:25:54.474Z,59.63
2019-03-28T06:28:34.929Z,60.73
2019-03-28T06:31:15.308Z,55.60
2019-03-28T06:33:55.794Z,42.40
2019-03-28T06:36:36.633Z,44.90
2019-03-28T06:39:17.518Z,46.13
2019-03-28T06:41:58.713Z,43.83
2019-03-28T06:44:39.802Z,44.17
2019-03-28T06:47:21.235Z,41.63
2019-03-28T06:50:01.902Z,40.23
2019-03-28T06:52:42.333Z,43.33
2019-03-28T06:55:24.169Z,37.13
2019-03-28T06:58:05.464Z,45.33
2019-03-28T07:00:45.976Z,38.13
2019-03-28T07:03:26.432Z,38.10
2019-03-28T07:06:07.487Z,38.37
2019-03-28T07:08:48.709Z,53.37
2019-03-28T07:11:30.009Z,46.20
2019-03-28T07:14:13.592Z,48.37
2019-03-28T07:16:54.684Z,47.57
2019-03-28T07:19:35.612Z,37.30
2019-03-28T07:22:16.604Z,50.77
2019-03-28T07:24:57.439Z,49.73
2019-03-28T07:27:37.976Z,47.00
2019-03-28T07:30:19.479Z,37.20
2019-03-28T07:33:00.750Z,56.90
2019-03-28T07:35:41.531Z,42.40
2019-03-28T07:38:22.115Z,45.70
2019-03-28T07:41:02.685Z,48.07
2019-03-28T07:43:43.446Z,45.00
2019-03-28T07:46:24.370Z,37.93
2019-03-28T07:49:05.232Z,37.70
2019-03-28T07:51:45.982Z,46.27
2019-03-28T07:54:27.749Z,38.67
2019-03-28T07:57:08.791Z,39.53
2019-03-28T07:59:49.556Z,47.93
2019-03-28T08:02:30.428Z,40.10
2019-03-28T08:05:11.215Z,48.57
2019-03-28T08:07:45.295Z,37.97
2019-03-28T08:10:10.362Z,44.60
2019-03-28T08:12:38.959Z,47.27
2019-03-28T08:15:09.217Z,53.78
2019-03-28T08:20:56.076Z,48.20
2019-03-28T08:23:43.977Z,46.00
2019-03-28T08:26:31.909Z,42.97
2019-03-28T08:29:19.812Z,40.47
2019-03-28T08:35:02.806Z,45.27
2019-03-28T08:37:50.776Z,44.03
2019-03-28T08:40:59.431Z,44.30
2019-03-28T08:43:39.837Z,32.50
2019-03-28T08:46:21.029Z,40.33
2019-03-28T08:49:01.677Z,42.23
2019-03-28T08:51:42.414Z,36.10
2019-03-28T08:54:22.868Z,58.63
2019-03-28T08:57:03.840Z,41.03
2019-03-28T08:59:32.423Z,44.83
2019-03-28T09:02:00.984Z,43.63
2019-03-28T09:04:29.584Z,38.67
2019-03-28T09:06:58.144Z,35.00
2019-03-28T09:09:26.700Z,39.17
2019-03-28T09:11:55.299Z,68.00
2019-03-28T09:14:43.233Z,61.13
2019-03-28T09:17:31.140Z,42.00
2019-03-28T09:20:19.077Z,35.30
2019-03-28T09:23:06.985Z,39.60
2019-03-28T09:25:54.933Z,37.83
2019-03-28T09:28:42.877Z,46.45
2019-03-28T09:31:30.792Z,44.75
2019-03-28T09:34:18.748Z,37.60
2019-03-28T09:37:06.655Z,38.47
2019-03-28T09:39:54.600Z,26.73
2019-03-28T09:42:33.484Z,52.80
2019-03-28T09:45:21.436Z,38.23
2019-03-28T09:48:11.611Z,44.43
2019-03-28T09:50:39.586Z,36.35
2019-03-28T09:53:08.139Z,32.30
2019-03-28T09:55:36.758Z,38.03
2019-03-28T09:58:05.328Z,43.40
2019-03-28T10:00:34.614Z,33.87
2019-03-28T10:03:03.221Z,42.63
2019-03-28T10:05:31.866Z,34.27
2019-03-28T10:08:00.428Z,36.10
2019-03-28T10:10:28.992Z,25.27
2019-03-28T10:12:57.686Z,32.23
2019-03-28T10:15:45.637Z,32.20
2019-03-28T10:18:33.576Z,26.13
2019-03-28T10:21:21.482Z,24.53
2019-03-28T10:24:09.426Z,27.33
2019-03-28T10:26:57.347Z,30.57
2019-03-28T10:29:45.259Z,32.05
2019-03-28T10:32:33.205Z,34.27
2019-03-28T10:35:41.823Z,33.10
2019-03-28T10:38:29.772Z,28.60
2019-03-28T10:41:17.663Z,34.77
2019-03-28T10:43:58.292Z,37.20
2019-03-28T10:46:38.913Z,23.27
2019-03-28T10:49:20.206Z,23.13
2019-03-28T10:52:03.702Z,33.67
2019-03-28T10:54:41.068Z,25.65
2019-03-28T10:57:30.312Z,21.97
2019-03-28T11:00:24.335Z,23.02
2019-03-28T11:06:02.382Z,14.90
2019-03-28T11:08:50.309Z,16.70
2019-03-28T11:11:38.219Z,20.17
2019-03-28T11:14:26.142Z,14.63
2019-03-28T11:16:55.966Z,15.93
2019-03-28T11:19:24.614Z,14.73
2019-03-28T11:22:12.547Z,14.30
2019-03-28T11:25:00.440Z,14.03
2019-03-28T11:26:59.173Z,21.37
2019-03-28T11:27:48.928Z,13.77
2019-03-28T11:30:34.825Z,20.47
2019-03-28T11:30:37.919Z,10.60
2019-03-28T11:33:25.856Z,10.33
2019-03-28T11:36:13.791Z,7.40
2019-03-28T11:41:55.181Z,10.53
2019-03-28T11:44:43.084Z,15.33
2019-03-28T11:47:11.672Z,12.63
2019-03-28T11:49:40.263Z,17.13
2019-03-28T11:52:28.175Z,10.33
2019-03-28T11:55:16.100Z,10.37
2019-03-28T12:01:10.908Z,16.83
2019-03-28T12:03:58.819Z,8.50
2019-03-28T12:06:48.899Z,6.03
2019-03-28T12:09:36.902Z,7.28
2019-03-28T12:10:35.658Z,16.00
2019-03-28T12:12:26.447Z,15.33
2019-03-28T12:15:14.513Z,9.70
2019-03-28T12:17:45.924Z,14.43
2019-03-28T12:18:02.453Z,8.80
2019-03-28T12:20:50.352Z,12.00
2019-03-28T12:23:38.294Z,11.53
2019-03-28T12:26:26.228Z,13.87
2019-03-28T12:28:54.790Z,12.03
2019-03-28T12:31:23.360Z,12.75
2019-03-28T12:34:11.288Z,13.97
2019-03-28T12:36:59.201Z,10.13
2019-03-28T12:39:47.149Z,17.90
2019-03-28T12:40:37.970Z,18.63
2019-03-28T12:42:27.647Z,12.17
2019-03-28T12:43:53.262Z,20.07
2019-03-28T12:45:09.007Z,11.93
2019-03-28T12:47:13.986Z,19.27
2019-03-28T12:47:49.327Z,9.85
2019-03-28T12:50:22.961Z,22.57
2019-03-28T12:50:31.108Z,9.78
2019-03-28T12:53:11.654Z,13.53
2019-03-28T12:53:33.265Z,31.17
2019-03-28T12:55:52.951Z,17.17
2019-03-28T12:57:09.244Z,20.30
2019-03-28T12:58:33.610Z,14.00
2019-03-28T13:01:14.624Z,14.23
2019-03-28T13:03:55.966Z,11.07
2019-03-28T13:06:14.904Z,28.13
2019-03-28T13:06:36.552Z,14.47
2019-03-28T13:09:16.839Z,11.87
2019-03-28T13:09:29.403Z,18.17
2019-03-28T13:11:58.160Z,10.97
2019-03-28T13:12:31.518Z,76.50
2019-03-28T13:14:39.028Z,8.00
2019-03-28T13:15:51.025Z,75.47
2019-03-28T13:17:20.249Z,8.83
2019-03-28T13:19:18.696Z,23.53
2019-03-28T13:20:02.024Z,9.60
2019-03-28T13:22:43.090Z,20.20
2019-03-28T13:22:44.945Z,47.00
2019-03-28T13:25:24.245Z,16.10
2019-03-28T13:25:53.577Z,16.70
2019-03-28T13:28:04.880Z,15.57
2019-03-28T13:28:50.998Z,25.00
2019-03-28T13:30:45.271Z,15.43
2019-03-28T13:32:00.380Z,68.17
2019-03-28T13:33:26.493Z,15.80
2019-03-28T13:35:11.616Z,32.87
2019-03-28T13:36:07.314Z,12.33
2019-03-28T13:38:35.901Z,9.80
2019-03-28T13:41:24.010Z,16.47
2019-03-28T13:42:13.758Z,37.03
2019-03-28T13:44:04.707Z,10.43
2019-03-28T13:45:24.483Z,35.20
2019-03-28T13:46:45.204Z,13.40
2019-03-28T13:48:22.266Z,52.63
2019-03-28T13:49:25.971Z,11.73
2019-03-28T13:51:52.817Z,43.47
2019-03-28T13:52:07.092Z,13.67
2019-03-28T13:54:47.696Z,9.43
2019-03-28T13:55:18.936Z,21.13
2019-03-28T13:57:28.480Z,18.63
2019-03-28T13:58:53.169Z,16.90
2019-03-28T14:00:09.436Z,8.13
2019-03-28T14:02:58.573Z,10.33
2019-03-28T14:05:33.328Z,8.23
2019-03-28T14:08:14.545Z,22.00
2019-03-28T14:09:34.830Z,18.57
2019-03-28T14:10:43.209Z,11.93
2019-03-28T14:12:28.193Z,18.93
2019-03-28T14:13:12.396Z,13.73
2019-03-28T14:15:41.096Z,14.43
2019-03-28T14:18:09.771Z,17.67
2019-03-28T14:20:07.763Z,23.57
2019-03-28T14:20:38.636Z,15.30
2019-03-28T14:23:07.302Z,16.83
2019-03-28T14:23:26.704Z,24.30
2019-03-28T14:25:35.846Z,22.13
2019-03-28T14:28:04.432Z,17.67
2019-03-28T14:30:52.729Z,19.80
2019-03-28T14:33:40.625Z,19.73
2019-03-28T14:36:15.740Z,18.67
2019-03-28T14:36:28.560Z,16.97
2019-03-28T14:39:16.662Z,15.33
2019-03-28T14:39:23.305Z,14.80
2019-03-28T14:42:04.657Z,13.13
2019-03-28T14:42:58.926Z,18.77
2019-03-28T14:44:52.596Z,16.63
2019-03-28T14:46:02.797Z,30.97
2019-03-28T14:47:33.788Z,13.33
2019-03-28T14:49:31.482Z,21.70
2019-03-28T14:50:14.474Z,19.07
2019-03-28T14:52:55.276Z,17.17
2019-03-28T14:55:24.071Z,11.77
2019-03-28T14:57:52.719Z,21.90
2019-03-28T15:00:59.960Z,19.33
2019-03-28T15:03:47.856Z,17.30
2019-03-28T15:09:29.440Z,11.10
2019-03-28T15:12:17.555Z,23.97
2019-03-28T15:15:05.946Z,13.27
2019-03-28T15:17:53.857Z,14.53
2019-03-28T15:20:22.453Z,18.13
2019-03-28T15:23:10.463Z,10.60
2019-03-28T15:25:58.384Z,10.90
2019-03-28T15:28:46.294Z,10.60
2019-03-28T15:34:41.932Z,14.80
2019-03-28T15:40:16.052Z,14.87
2019-03-28T15:43:04.183Z,12.30
2019-03-28T15:45:52.075Z,8.30
2019-03-28T15:48:52.839Z,13.13
2019-03-28T15:51:42.780Z,7.50
2019-03-28T15:54:20.456Z,12.53
2019-03-28T15:57:09.101Z,14.60
2019-03-28T15:59:57.005Z,10.93
2019-03-28T16:05:38.817Z,12.20
2019-03-28T16:08:27.756Z,22.23
2019-03-28T16:14:11.138Z,21.30
2019-03-28T16:16:59.263Z,11.83
2019-03-28T16:19:47.292Z,17.37
2019-03-28T16:22:35.204Z,8.35
2019-03-28T16:25:23.177Z,17.10
2019-03-28T16:28:03.804Z,9.93
2019-03-28T16:30:44.884Z,9.30
2019-03-28T16:33:25.690Z,10.90
2019-03-28T16:36:06.953Z,17.83
2019-03-28T16:38:48.009Z,11.60
2019-03-28T16:41:29.288Z,17.23
2019-03-28T16:44:10.451Z,15.00
2019-03-28T16:46:51.448Z,11.20
2019-03-28T16:49:32.887Z,10.37
2019-03-28T16:52:13.717Z,26.67
2019-03-28T16:54:54.121Z,18.98
2019-03-28T16:57:34.546Z,13.90
2019-03-28T17:00:15.376Z,21.10
2019-03-28T17:02:55.820Z,10.43
2019-03-28T17:05:36.196Z,11.80
2019-03-28T17:08:17.673Z,11.60
2019-03-28T17:10:58.708Z,15.07
2019-03-28T17:13:39.337Z,11.63
2019-03-28T17:16:20.018Z,12.37
2019-03-28T17:19:00.672Z,15.28
2019-03-28T17:21:41.305Z,11.37
2019-03-28T17:24:21.780Z,18.00
2019-03-28T17:29:44.812Z,11.13
2019-03-28T17:32:26.120Z,7.17
2019-03-28T17:35:07.588Z,8.30
2019-03-28T17:37:48.541Z,9.60
2019-03-28T17:40:28.841Z,11.43
2019-03-28T17:43:09.264Z,19.17
2019-03-28T17:44:05.299Z,23.10
2019-03-28T17:45:50.245Z,19.67
2019-03-28T17:48:31.334Z,14.00
2019-03-28T17:51:12.548Z,22.00
2019-03-28T17:53:55.990Z,16.37
2019-03-28T17:56:35.949Z,9.03
2019-03-28T17:59:17.248Z,17.50
2019-03-28T18:01:57.999Z,11.10
2019-03-28T18:04:26.573Z,18.63
2019-03-28T18:07:14.508Z,13.97
2019-03-28T18:10:03.127Z,14.77
2019-03-28T18:12:52.265Z,18.67
2019-03-28T18:15:40.280Z,11.60
2019-03-28T18:18:28.193Z,13.63
2019-03-28T18:21:16.186Z,5.83
2019-03-28T18:24:04.345Z,11.40
2019-03-28T18:26:52.263Z,15.30
2019-03-28T18:29:40.380Z,14.53
2019-03-28T18:32:28.460Z,10.93
2019-03-28T18:35:16.462Z,15.60
2019-03-28T18:38:04.387Z,11.90
2019-03-28T18:41:06.411Z,18.73
2019-03-28T18:46:35.784Z,14.15
2019-03-28T18:49:16.719Z,17.47
2019-03-28T18:51:57.951Z,11.17
2019-03-28T18:54:38.721Z,13.45
2019-03-28T18:57:19.895Z,13.43
2019-03-28T19:00:00.785Z,17.67
2019-03-28T19:02:42.009Z,12.60
2019-03-28T19:05:22.960Z,21.53
2019-03-28T19:07:51.750Z,14.15
2019-03-28T19:10:20.458Z,23.40
2019-03-28T19:12:49.056Z,16.80
2019-03-28T19:15:18.064Z,17.23
2019-03-28T19:18:05.992Z,20.10
2019-03-28T19:20:54.424Z,20.40
2019-03-28T19:23:54.548Z,17.10
2019-03-28T19:26:32.256Z,18.30
2019-03-28T19:29:20.168Z,20.37
2019-03-28T19:32:08.100Z,12.73
2019-03-28T19:34:56.094Z,7.37
2019-03-28T19:40:38.523Z,17.23
2019-03-28T19:43:26.514Z,17.07
2019-03-28T19:46:14.492Z,16.93
2019-03-28T19:48:55.270Z,15.37
2019-03-28T19:51:36.100Z,21.90
2019-03-28T19:54:17.185Z,22.27
2019-03-28T19:56:58.049Z,16.00
2019-03-28T19:59:38.653Z,18.27
2019-03-28T20:02:19.237Z,20.33
2019-03-28T20:05:00.530Z,16.53
2019-03-28T20:07:41.037Z,14.17
2019-03-28T20:10:21.592Z,18.07
2019-03-28T20:13:05.179Z,17.43
2019-03-28T20:15:44.907Z,16.40
2019-03-28T20:18:25.893Z,17.23
2019-03-28T20:21:07.184Z,21.70
2019-03-28T20:23:48.969Z,16.17
2019-03-28T20:26:30.280Z,18.23
2019-03-28T20:29:11.716Z,17.37
2019-03-28T20:31:52.959Z,17.97
2019-03-28T20:34:34.017Z,18.47
2019-03-28T20:37:14.937Z,23.10
2019-03-28T20:39:55.582Z,16.33
2019-03-28T20:42:36.800Z,22.03
2019-03-28T20:45:18.156Z,16.43
2019-03-28T20:47:58.899Z,25.73
2019-03-28T20:50:39.899Z,24.87
2019-03-28T20:53:20.460Z,18.97
2019-03-28T20:56:01.697Z,17.37
2019-03-28T20:58:42.801Z,20.20
2019-03-28T21:01:23.439Z,19.77
2019-03-28T21:04:05.508Z,21.40
2019-03-28T21:06:46.142Z,25.03
2019-03-28T21:09:27.310Z,16.10
2019-03-28T21:12:07.849Z,17.43
2019-03-28T21:14:49.227Z,15.30
2019-03-28T21:17:32.171Z,20.48
2019-03-28T21:20:12.686Z,24.07
2019-03-28T21:22:53.763Z,18.87
2019-03-28T21:25:34.381Z,19.90
2019-03-28T21:28:03.076Z,16.40
2019-03-28T21:30:31.680Z,17.13
2019-03-28T21:33:19.576Z,26.00
2019-03-28T21:36:07.680Z,22.27
2019-03-28T21:38:55.626Z,26.87
2019-03-28T21:41:36.416Z,24.00
2019-03-28T21:44:17.423Z,14.40
2019-03-28T21:46:58.213Z,19.23
2019-03-28T21:49:39.476Z,17.67
2019-03-28T21:52:20.085Z,22.40
2019-03-28T21:55:01.389Z,21.87
2019-03-28T21:57:42.837Z,18.37
2019-03-28T22:00:24.092Z,21.60
2019-03-28T22:03:04.468Z,19.40
2019-03-28T22:05:45.822Z,19.57
2019-03-28T22:08:26.421Z,26.40
2019-03-28T22:10:55.019Z,18.63
2019-03-28T22:13:23.580Z,14.63
2019-03-28T22:15:52.141Z,18.67
2019-03-28T22:18:20.836Z,21.63
2019-03-28T22:20:49.402Z,18.20
2019-03-28T22:23:17.995Z,26.47
2019-03-28T22:25:46.603Z,15.80
2019-03-28T22:28:15.192Z,15.65
2019-03-28T22:31:03.092Z,18.23
2019-03-28T22:33:51.032Z,19.70
2019-03-28T22:36:38.935Z,20.03
2019-03-28T22:39:26.927Z,14.10
2019-03-28T22:45:08.537Z,17.53
2019-03-28T22:48:09.771Z,16.37
2019-03-28T22:50:38.533Z,18.07
2019-03-28T22:53:19.115Z,15.80
2019-03-28T22:56:00.053Z,19.27
2019-03-28T22:58:41.764Z,11.90
2019-03-28T23:01:22.881Z,18.00
2019-03-28T23:04:04.187Z,11.43
2019-03-28T23:06:43.205Z,17.70
2019-03-28T23:09:31.140Z,18.47
2019-03-28T23:15:26.490Z,19.30
2019-03-28T23:18:14.388Z,19.80
2019-03-28T23:21:02.364Z,21.20
2019-03-28T23:23:50.259Z,16.07
2019-03-28T23:26:38.192Z,24.10
2019-03-28T23:29:26.135Z,26.05
2019-03-28T23:32:14.058Z,20.23
2019-03-28T23:37:55.814Z,16.20
2019-03-28T23:40:43.735Z,21.10
2019-03-28T23:43:31.677Z,26.73
2019-03-28T23:46:20.549Z,21.60
2019-03-28T23:49:08.457Z,23.80
2019-03-28T23:51:50.225Z,25.00
2019-03-28T23:54:31.754Z,33.13
2019-03-28T23:57:12.622Z,28.60
2019-03-28T23:59:53.039Z,24.07
